sensor_id;sensor_type;location;lat;lon;timestamp;temperature;humidity
36864;DHT22;22793;51.148;6.948;2023-04-25T18:04:27;23.60;44.60
36864;DHT22;22793;51.148;6.948;2023-04-25T18:06:52;23.70;43.70
36864;DHT22;22793;51.148;6.948;2023-04-25T18:09:18;23.80;43.60
36864;DHT22;22793;51.148;6.948;2023-04-25T18:11:48;23.80;43.70
36864;DHT22;22793;51.148;6.948;2023-04-25T18:14:17;23.80;43.70
36864;DHT22;22793;51.148;6.948;2023-04-25T18:16:45;23.70;43.70
36864;DHT22;22793;51.148;6.948;2023-04-25T18:19:12;23.70;43.80
36864;DHT22;22793;51.148;6.948;2023-04-25T18:21:43;23.70;43.90
36864;DHT22;22793;51.148;6.948;2023-04-25T18:24:13;23.60;44.00
36864;DHT22;22793;51.148;6.948;2023-04-25T18:26:42;23.60;45.00
36864;DHT22;22793;51.148;6.948;2023-04-25T18:29:08;23.50;44.50
36864;DHT22;22793;51.148;6.948;2023-04-25T18:31:34;23.50;44.70
36864;DHT22;22793;51.148;6.948;2023-04-25T18:34:01;23.50;45.00
36864;DHT22;22793;51.148;6.948;2023-04-25T18:36:26;23.40;44.90
36864;DHT22;22793;51.148;6.948;2023-04-25T18:38:56;23.30;45.10
36864;DHT22;22793;51.148;6.948;2023-04-25T18:41:23;23.30;45.90
36864;DHT22;22793;51.148;6.948;2023-04-25T18:43:49;23.30;45.50
36864;DHT22;22793;51.148;6.948;2023-04-25T18:46:15;23.20;45.70
36864;DHT22;22793;51.148;6.948;2023-04-25T18:48:42;23.20;45.90
36864;DHT22;22793;51.148;6.948;2023-04-25T18:51:08;23.10;46.00
36864;DHT22;22793;51.148;6.948;2023-04-25T18:53:33;23.00;46.10
36864;DHT22;22793;51.148;6.948;2023-04-25T18:55:59;23.00;46.40
36864;DHT22;22793;51.148;6.948;2023-04-25T18:58:25;22.90;46.60
36864;DHT22;22793;51.148;6.948;2023-04-25T19:00:51;22.90;46.80
36864;DHT22;22793;51.148;6.948;2023-04-25T19:03:17;22.80;46.90
36864;DHT22;22793;51.148;6.948;2023-04-25T19:05:42;22.70;47.00
36864;DHT22;22793;51.148;6.948;2023-04-25T19:08:08;22.60;47.10
36864;DHT22;22793;51.148;6.948;2023-04-25T19:10:33;22.50;47.30
36864;DHT22;22793;51.148;6.948;2023-04-25T19:12:59;22.50;47.40
36864;DHT22;22793;51.148;6.948;2023-04-25T19:15:25;22.40;47.70
36864;DHT22;22793;51.148;6.948;2023-04-25T19:17:50;22.30;48.00
36864;DHT22;22793;51.148;6.948;2023-04-25T19:20:16;22.30;48.40
36864;DHT22;22793;51.148;6.948;2023-04-25T19:22:42;22.30;48.60
36864;DHT22;22793;51.148;6.948;2023-04-25T19:25:08;22.20;48.70
36864;DHT22;22793;51.148;6.948;2023-04-25T19:27:33;22.20;48.80
36864;DHT22;22793;51.148;6.948;2023-04-25T19:29:59;22.20;48.90
36864;DHT22;22793;51.148;6.948;2023-04-25T19:32:33;22.10;49.00
36864;DHT22;22793;51.148;6.948;2023-04-25T19:35:00;22.10;49.20
36864;DHT22;22793;51.148;6.948;2023-04-25T19:37:25;22.00;49.30
36864;DHT22;22793;51.148;6.948;2023-04-25T19:39:51;22.00;49.40
36864;DHT22;22793;51.148;6.948;2023-04-25T19:42:16;22.00;49.50
36864;DHT22;22793;51.148;6.948;2023-04-25T19:44:44;21.90;49.50
36864;DHT22;22793;51.148;6.948;2023-04-25T19:47:10;21.90;49.60
36864;DHT22;22793;51.148;6.948;2023-04-25T19:49:36;21.90;49.70
36864;DHT22;22793;51.148;6.948;2023-04-25T19:52:02;21.90;49.90
36864;DHT22;22793;51.148;6.948;2023-04-25T19:54:29;21.80;49.90
36864;DHT22;22793;51.148;6.948;2023-04-25T19:56:55;21.80;50.00
36864;DHT22;22793;51.148;6.948;2023-04-25T19:59:20;21.80;50.10
36864;DHT22;22793;51.148;6.948;2023-04-25T20:01:46;21.80;50.30
36864;DHT22;22793;51.148;6.948;2023-04-25T20:04:12;22.30;51.10
36864;DHT22;22793;51.148;6.948;2023-04-25T20:06:37;23.30;48.30
36864;DHT22;22793;51.148;6.948;2023-04-25T20:09:03;23.90;47.50
36864;DHT22;22793;51.148;6.948;2023-04-25T20:11:31;24.30;46.80
36864;DHT22;22793;51.148;6.948;2023-04-25T20:13:57;24.60;45.80
36864;DHT22;22793;51.148;6.948;2023-04-25T20:16:23;24.80;45.70
36864;DHT22;22793;51.148;6.948;2023-04-25T20:18:49;24.70;45.60
36864;DHT22;22793;51.148;6.948;2023-04-25T20:21:17;24.80;45.70
36864;DHT22;22793;51.148;6.948;2023-04-25T20:23:43;25.50;45.20
36864;DHT22;22793;51.148;6.948;2023-04-25T20:26:09;25.50;44.30
36864;DHT22;22793;51.148;6.948;2023-04-25T20:28:37;25.10;43.90
36864;DHT22;22793;51.148;6.948;2023-04-25T20:31:03;24.30;45.30
36864;DHT22;22793;51.148;6.948;2023-04-25T20:33:29;23.70;46.60
36864;DHT22;22793;51.148;6.948;2023-04-25T20:35:55;23.30;47.60
36864;DHT22;22793;51.148;6.948;2023-04-25T20:38:20;22.90;48.30
36864;DHT22;22793;51.148;6.948;2023-04-25T20:40:46;22.60;48.80
36864;DHT22;22793;51.148;6.948;2023-04-25T20:43:12;22.40;49.40
36864;DHT22;22793;51.148;6.948;2023-04-25T20:45:38;22.20;49.70
36864;DHT22;22793;51.148;6.948;2023-04-25T20:48:04;22.10;50.10
36864;DHT22;22793;51.148;6.948;2023-04-25T20:50:31;22.00;50.30
36864;DHT22;22793;51.148;6.948;2023-04-25T20:52:57;21.90;50.60
36864;DHT22;22793;51.148;6.948;2023-04-25T20:55:23;21.80;50.70
36864;DHT22;22793;51.148;6.948;2023-04-25T20:57:49;21.80;50.90
36864;DHT22;22793;51.148;6.948;2023-04-25T21:00:15;21.70;51.10
36864;DHT22;22793;51.148;6.948;2023-04-25T21:02:44;21.70;51.20
36864;DHT22;22793;51.148;6.948;2023-04-25T21:05:10;21.60;51.20
36864;DHT22;22793;51.148;6.948;2023-04-25T21:07:36;21.50;51.30
36864;DHT22;22793;51.148;6.948;2023-04-25T21:10:03;21.40;51.30
36864;DHT22;22793;51.148;6.948;2023-04-25T21:12:29;21.40;51.40
36864;DHT22;22793;51.148;6.948;2023-04-25T21:14:55;21.40;51.40
36864;DHT22;22793;51.148;6.948;2023-04-25T21:17:20;21.30;51.50
36864;DHT22;22793;51.148;6.948;2023-04-25T21:19:46;21.20;51.50
36864;DHT22;22793;51.148;6.948;2023-04-25T21:22:12;21.20;51.60
36864;DHT22;22793;51.148;6.948;2023-04-25T21:24:37;21.10;51.60
36864;DHT22;22793;51.148;6.948;2023-04-25T21:27:03;21.10;51.70
36864;DHT22;22793;51.148;6.948;2023-04-25T21:29:29;21.00;51.70
36864;DHT22;22793;51.148;6.948;2023-04-25T21:31:55;20.90;51.80
36864;DHT22;22793;51.148;6.948;2023-04-25T21:34:21;20.90;51.70
36864;DHT22;22793;51.148;6.948;2023-04-25T21:36:47;20.90;51.70
36864;DHT22;22793;51.148;6.948;2023-04-25T21:39:13;20.80;51.80
36864;DHT22;22793;51.148;6.948;2023-04-25T21:41:39;20.80;51.80
36864;DHT22;22793;51.148;6.948;2023-04-25T21:44:05;20.80;51.80
36864;DHT22;22793;51.148;6.948;2023-04-25T21:46:31;20.70;51.80
36864;DHT22;22793;51.148;6.948;2023-04-25T21:48:57;20.70;51.90
36864;DHT22;22793;51.148;6.948;2023-04-25T21:51:23;20.60;51.80
36864;DHT22;22793;51.148;6.948;2023-04-25T21:53:49;20.60;51.90
36864;DHT22;22793;51.148;6.948;2023-04-25T21:56:15;20.60;52.00
36864;DHT22;22793;51.148;6.948;2023-04-25T21:58:40;20.50;52.00
36864;DHT22;22793;51.148;6.948;2023-04-25T22:01:06;20.50;52.00
36864;DHT22;22793;51.148;6.948;2023-04-25T22:03:32;20.50;52.00
36864;DHT22;22793;51.148;6.948;2023-04-25T22:05:58;20.40;52.10
36864;DHT22;22793;51.148;6.948;2023-04-25T22:08:24;20.40;52.10
36864;DHT22;22793;51.148;6.948;2023-04-25T22:10:49;20.40;52.20
36864;DHT22;22793;51.148;6.948;2023-04-25T22:13:15;20.30;52.20
36864;DHT22;22793;51.148;6.948;2023-04-25T22:15:40;20.30;52.30
36864;DHT22;22793;51.148;6.948;2023-04-25T22:18:06;20.20;52.30
36864;DHT22;22793;51.148;6.948;2023-04-25T22:20:32;20.20;52.30
36864;DHT22;22793;51.148;6.948;2023-04-25T22:22:58;20.20;52.40
36864;DHT22;22793;51.148;6.948;2023-04-25T22:25:24;20.10;52.40
36864;DHT22;22793;51.148;6.948;2023-04-25T22:27:50;20.10;52.40
36864;DHT22;22793;51.148;6.948;2023-04-25T22:30:16;20.10;52.50
36864;DHT22;22793;51.148;6.948;2023-04-25T22:32:42;20.10;52.60
36864;DHT22;22793;51.148;6.948;2023-04-25T22:35:09;20.00;52.50
36864;DHT22;22793;51.148;6.948;2023-04-25T22:37:35;20.00;53.10
36864;DHT22;22793;51.148;6.948;2023-04-25T22:40:04;20.00;52.70
36864;DHT22;22793;51.148;6.948;2023-04-25T22:42:40;20.00;52.70
36864;DHT22;22793;51.148;6.948;2023-04-25T22:45:07;20.00;52.70
36864;DHT22;22793;51.148;6.948;2023-04-25T22:47:34;19.90;52.80
36864;DHT22;22793;51.148;6.948;2023-04-25T22:49:59;19.90;52.70
36864;DHT22;22793;51.148;6.948;2023-04-25T22:52:28;19.90;52.80
36864;DHT22;22793;51.148;6.948;2023-04-25T22:54:53;19.90;52.80
36864;DHT22;22793;51.148;6.948;2023-04-25T22:57:20;19.90;52.80
36864;DHT22;22793;51.148;6.948;2023-04-25T22:59:46;19.80;52.80
36864;DHT22;22793;51.148;6.948;2023-04-25T23:02:11;19.80;52.80
36864;DHT22;22793;51.148;6.948;2023-04-25T23:04:37;19.80;52.80
36864;DHT22;22793;51.148;6.948;2023-04-25T23:07:03;19.80;52.80
36864;DHT22;22793;51.148;6.948;2023-04-25T23:09:29;19.80;52.90
36864;DHT22;22793;51.148;6.948;2023-04-25T23:11:56;19.80;52.80
36864;DHT22;22793;51.148;6.948;2023-04-25T23:14:22;19.70;52.80
36864;DHT22;22793;51.148;6.948;2023-04-25T23:16:48;19.70;52.80
36864;DHT22;22793;51.148;6.948;2023-04-25T23:19:14;19.70;52.80
36864;DHT22;22793;51.148;6.948;2023-04-25T23:21:39;19.70;52.90
36864;DHT22;22793;51.148;6.948;2023-04-25T23:24:05;19.70;52.90
36864;DHT22;22793;51.148;6.948;2023-04-25T23:26:31;19.60;52.90
36864;DHT22;22793;51.148;6.948;2023-04-25T23:28:56;19.60;52.90
36864;DHT22;22793;51.148;6.948;2023-04-25T23:31:22;19.60;52.90
36864;DHT22;22793;51.148;6.948;2023-04-25T23:33:47;19.60;52.90
36864;DHT22;22793;51.148;6.948;2023-04-25T23:36:17;19.60;53.00
36864;DHT22;22793;51.148;6.948;2023-04-25T23:38:45;19.60;53.00
36864;DHT22;22793;51.148;6.948;2023-04-25T23:41:11;19.50;53.00
36864;DHT22;22793;51.148;6.948;2023-04-25T23:43:37;19.50;53.00
36864;DHT22;22793;51.148;6.948;2023-04-25T23:46:02;19.50;53.00
36864;DHT22;22793;51.148;6.948;2023-04-25T23:48:28;19.50;53.00
36864;DHT22;22793;51.148;6.948;2023-04-25T23:50:54;19.50;53.00
36864;DHT22;22793;51.148;6.948;2023-04-25T23:53:20;19.50;53.00
36864;DHT22;22793;51.148;6.948;2023-04-25T23:55:46;19.50;53.00
36864;DHT22;22793;51.148;6.948;2023-04-25T23:58:11;19.50;53.10
